Time;durP1;ratioP1;P1;durP2;ratioP2;P2;SDS_P1;SDS_P2;PMS_P1;PMS_P2;Temp;Humidity;BMP_temperature;BMP_pressure;BME280_temperature;BME280_humidity;BME280_pressure;Samples;Min_cycle;Max_cycle;Signal;HPM_P1;HPM_P2
2022/03/23 00:01:58;;;;;;;27.08;16.75;;;;;;;3.60;100.00;101892.88;5029238;28;20029;-58
2022/03/23 00:04:24;;;;;;;28.20;17.75;;;;;;;3.45;100.00;101874.66;5028829;28;20139;-58
2022/03/23 00:06:49;;;;;;;26.77;17.58;;;;;;;3.56;100.00;101898.06;5028675;28;20085;-59
2022/03/23 00:09:14;;;;;;;28.75;17.83;;;;;;;3.50;100.00;101898.06;5028574;28;20913;-59
2022/03/23 00:11:41;;;;;;;27.15;17.67;;;;;;;3.41;100.00;101892.84;5029656;28;20131;-59
2022/03/23 00:14:07;;;;;;;22.80;17.33;;;;;;;3.40;100.00;101898.88;5030647;28;20072;-59
2022/03/23 00:16:36;;;;;;;23.30;17.50;;;;;;;3.14;100.00;101869.38;5029392;28;20021;-59
2022/03/23 00:19:07;;;;;;;29.77;18.70;;;;;;;3.33;100.00;101902.31;5031361;28;20033;-59
2022/03/23 00:21:32;;;;;;;22.67;17.85;;;;;;;3.33;100.00;101904.91;5027317;28;20025;-59
2022/03/23 00:23:58;;;;;;;27.65;18.80;;;;;;;3.22;100.00;101896.22;5028104;28;20036;-59
2022/03/23 00:26:23;;;;;;;26.33;17.90;;;;;;;3.22;100.00;101902.28;5028299;28;20041;-58
2022/03/23 00:28:48;;;;;;;23.15;17.98;;;;;;;3.17;100.00;101904.00;5028401;28;20885;-58
2022/03/23 00:31:14;;;;;;;24.42;18.95;;;;;;;3.16;100.00;101907.44;5043605;28;20063;-59
2022/03/23 00:33:39;;;;;;;23.08;17.65;;;;;;;3.16;100.00;101901.38;5027922;28;20024;-59
2022/03/23 00:36:06;;;;;;;27.80;17.90;;;;;;;3.17;100.00;101910.91;5028354;28;20901;-59
2022/03/23 00:38:32;;;;;;;26.77;17.92;;;;;;;3.14;100.00;101916.09;5027599;28;20091;-59
2022/03/23 00:40:58;;;;;;;29.30;18.27;;;;;;;3.08;100.00;101907.41;5028734;28;20036;-58
2022/03/23 00:43:23;;;;;;;29.85;19.17;;;;;;;3.00;100.00;101900.47;5028590;28;20021;-58
2022/03/23 00:45:49;;;;;;;28.02;19.20;;;;;;;2.95;100.00;101903.03;5030215;28;20025;-59
2022/03/23 00:48:14;;;;;;;26.30;18.85;;;;;;;2.92;100.00;101896.94;5046216;28;20808;-59
2022/03/23 00:50:39;;;;;;;28.02;19.65;;;;;;;2.90;100.00;101898.69;5028413;28;20086;-59
2022/03/23 00:53:06;;;;;;;31.10;19.65;;;;;;;2.82;100.00;101890.84;5029808;28;20886;-59
2022/03/23 00:55:31;;;;;;;29.85;19.17;;;;;;;2.84;100.00;101891.72;5029809;28;20028;-59
2022/03/23 00:57:57;;;;;;;27.77;19.77;;;;;;;2.78;100.00;101885.63;5027768;28;20939;-59
2022/03/23 01:00:22;;;;;;;32.97;20.85;;;;;;;2.79;100.00;101890.84;5028677;28;20029;-58
2022/03/23 01:02:49;;;;;;;23.95;18.88;;;;;;;2.75;100.00;101894.25;5026469;28;20035;-59
2022/03/23 01:05:15;;;;;;;31.35;20.73;;;;;;;2.67;100.00;101890.75;5027184;28;20970;-58
2022/03/23 01:07:42;;;;;;;25.65;19.70;;;;;;;2.58;100.00;101885.50;5029322;28;20033;-59
2022/03/23 01:10:11;;;;;;;31.02;19.73;;;;;;;2.59;100.00;101897.63;5043608;28;20032;-59
2022/03/23 01:12:38;;;;;;;28.73;20.23;;;;;;;2.50;100.00;101887.19;5027509;28;20036;-59
2022/03/23 01:15:04;;;;;;;29.75;19.30;;;;;;;2.51;100.00;101894.09;5027854;28;20094;-59
2022/03/23 01:17:30;;;;;;;27.92;19.85;;;;;;;2.52;100.00;101901.03;5029883;28;20110;-59
2022/03/23 01:19:56;;;;;;;28.90;20.33;;;;;;;2.49;100.00;101895.84;5027751;28;20036;-58
2022/03/23 01:22:21;;;;;;;30.77;19.88;;;;;;;2.44;100.00;101893.19;5028946;28;20056;-59
2022/03/23 01:24:47;;;;;;;28.38;20.15;;;;;;;2.44;100.00;101897.50;5028078;28;20025;-58
2022/03/23 01:27:12;;;;;;;29.65;19.92;;;;;;;2.47;100.00;101894.94;5027883;28;20036;-58
2022/03/23 01:29:38;;;;;;;26.70;18.88;;;;;;;2.54;100.00;101896.72;5027902;28;20873;-58
2022/03/23 01:32:05;;;;;;;23.25;17.70;;;;;;;2.36;100.00;101868.06;5027167;28;20036;-58
2022/03/23 01:34:30;;;;;;;24.95;18.80;;;;;;;2.48;100.00;101899.28;5028642;28;20275;-58
2022/03/23 01:36:55;;;;;;;28.20;18.15;;;;;;;2.37;100.00;101888.81;5027859;28;20801;-58
2022/03/23 01:39:21;;;;;;;28.52;17.23;;;;;;;2.34;100.00;101895.72;5028248;28;20060;-58
2022/03/23 01:41:46;;;;;;;24.77;19.88;;;;;;;2.35;100.00;101890.53;5028522;28;20987;-58
2022/03/23 01:44:23;;;;;;;25.92;18.10;;;;;;;2.33;100.00;101884.47;5026556;28;20908;-58
2022/03/23 01:47:04;;;;;;;29.13;18.70;;;;;;;2.29;100.00;101889.63;5027336;28;20028;-59
2022/03/23 01:49:30;;;;;;;26.90;18.02;;;;;;;2.23;100.00;101887.84;5027881;28;20086;-59
2022/03/23 01:51:55;;;;;;;27.55;18.88;;;;;;;2.23;100.00;101889.59;5026389;28;20028;-59
2022/03/23 01:54:21;;;;;;;24.55;17.73;;;;;;;2.21;100.00;101899.06;5028206;28;20042;-59
2022/03/23 01:56:48;;;;;;;24.88;16.33;;;;;;;2.01;100.00;101849.66;5026986;28;20945;-59
2022/03/23 01:59:15;;;;;;;26.80;18.33;;;;;;;2.19;100.00;101887.81;5027886;28;20932;-59
2022/03/23 02:01:40;;;;;;;26.08;16.98;;;;;;;2.14;100.00;101879.13;5028028;28;21013;-59
2022/03/23 02:04:06;;;;;;;24.40;18.77;;;;;;;2.09;100.00;101873.06;5027145;28;20040;-59
2022/03/23 02:06:31;;;;;;;24.90;18.08;;;;;;;1.94;100.00;101850.47;5028144;28;20028;-58
2022/03/23 02:08:57;;;;;;;22.20;17.38;;;;;;;2.01;100.00;101875.56;5026907;28;20032;-59
2022/03/23 02:11:24;;;;;;;21.60;17.80;;;;;;;1.97;100.00;101879.88;5027317;28;20040;-60
2022/03/23 02:13:49;;;;;;;25.27;17.63;;;;;;;1.89;100.00;101865.13;5026429;28;20135;-58
2022/03/23 02:16:15;;;;;;;30.20;18.33;;;;;;;1.74;100.00;101844.25;5026060;28;20037;-58
2022/03/23 02:18:40;;;;;;;27.15;17.40;;;;;;;1.86;100.00;101860.75;5027231;28;20085;-58
2022/03/23 02:21:06;;;;;;;22.70;17.25;;;;;;;1.82;100.00;101864.19;5027696;28;20101;-59
2022/03/23 02:23:31;;;;;;;24.20;17.70;;;;;;;1.79;100.00;101868.47;5026821;28;20032;-58
2022/03/23 02:26:01;;;;;;;26.02;18.05;;;;;;;1.69;100.00;101859.72;5026485;28;20036;-59
2022/03/23 02:28:31;;;;;;;24.40;17.85;;;;;;;1.73;100.00;101863.22;5026475;28;20094;-59
2022/03/23 02:30:56;;;;;;;23.30;17.83;;;;;;;1.63;100.00;101853.63;5026091;28;20909;-58
2022/03/23 02:33:22;;;;;;;28.65;19.40;;;;;;;1.67;100.00;101866.63;5025506;28;20024;-59
2022/03/23 02:35:48;;;;;;;28.90;18.95;;;;;;;1.69;100.00;101836.41;5026004;28;20031;-58
2022/03/23 02:38:14;;;;;;;28.95;18.63;;;;;;;2.02;100.00;101870.41;5025832;28;20611;-58
2022/03/23 02:40:41;;;;;;;27.02;17.98;;;;;;;2.01;100.00;101865.22;5026211;28;20066;-59
2022/03/23 02:43:07;;;;;;;22.63;16.35;;;;;;;1.89;100.00;101845.22;5025624;28;20124;-58
2022/03/23 02:45:32;;;;;;;31.50;19.33;;;;;;;1.78;100.00;101839.13;5025584;28;20136;-58
2022/03/23 02:47:58;;;;;;;27.58;18.88;;;;;;;1.79;100.00;101848.59;5025957;28;20873;-59
2022/03/23 02:50:24;;;;;;;23.42;17.67;;;;;;;1.87;100.00;101866.81;5025329;28;20064;-58
2022/03/23 03:03:59;;;;;;;26.42;18.45;;;;;;;1.83;100.00;101876.28;5026574;28;20408;-58
2022/03/23 03:06:24;;;;;;;26.08;18.65;;;;;;;1.82;100.00;101874.56;5026173;28;20872;-58
2022/03/23 03:08:50;;;;;;;21.33;16.88;;;;;;;1.48;100.00;101820.69;5025949;28;20032;-58
2022/03/23 03:11:17;;;;;;;23.23;16.33;;;;;;;1.33;100.00;101808.47;5026197;28;20035;-58
2022/03/23 03:13:43;;;;;;;30.25;16.65;;;;;;;1.60;100.00;101875.19;5025267;28;20020;-58
2022/03/23 03:16:08;;;;;;;27.05;19.00;;;;;;;1.55;100.00;101876.88;5025100;28;20942;-58
2022/03/23 03:18:34;;;;;;;24.42;17.88;;;;;;;1.53;100.00;101878.56;5025425;28;20024;-58
2022/03/23 03:21:03;;;;;;;25.95;17.10;;;;;;;1.35;100.00;101850.75;5025761;28;20032;-58
2022/03/23 03:23:30;;;;;;;26.30;17.45;;;;;;;1.23;100.00;101839.41;5025689;28;20059;-58
2022/03/23 03:25:55;;;;;;;26.23;18.63;;;;;;;1.41;100.00;101876.75;5026955;28;20408;-58
2022/03/23 03:28:20;;;;;;;29.52;18.83;;;;;;;1.42;100.00;101875.03;5031851;28;20086;-59
2022/03/23 03:30:46;;;;;;;24.35;18.27;;;;;;;1.41;100.00;101886.22;5030977;28;20051;-58
2022/03/23 03:33:11;;;;;;;24.85;17.65;;;;;;;1.21;100.00;101846.31;5029843;28;20024;-58
2022/03/23 03:35:36;;;;;;;29.40;18.92;;;;;;;1.01;100.00;101823.63;5031100;28;20032;-58
2022/03/23 03:38:02;;;;;;;25.65;18.70;;;;;;;1.33;100.00;101883.53;5029255;28;20031;-58
2022/03/23 03:40:27;;;;;;;25.67;18.50;;;;;;;1.35;100.00;101886.16;5031206;28;20033;-58
2022/03/23 03:42:52;;;;;;;27.80;17.90;;;;;;;1.19;100.00;101868.69;5029199;28;20889;-58
2022/03/23 03:45:18;;;;;;;29.08;18.00;;;;;;;1.08;100.00;101854.78;5028935;28;20237;-58
2022/03/23 03:47:44;;;;;;;26.35;17.95;;;;;;;1.23;100.00;101880.81;5028992;28;20993;-58
2022/03/23 03:50:10;;;;;;;26.45;17.92;;;;;;;1.22;100.00;101892.00;5022575;28;20058;-59
2022/03/23 03:52:35;;;;;;;24.70;16.95;;;;;;;1.19;100.00;101892.84;5028479;28;20869;-58
2022/03/23 03:55:01;;;;;;;28.42;18.90;;;;;;;1.17;100.00;101889.41;5030254;28;20025;-59
2022/03/23 03:57:26;;;;;;;30.95;18.27;;;;;;;1.21;100.00;101882.53;5029440;28;20135;-58
2022/03/23 03:59:52;;;;;;;24.20;17.50;;;;;;;1.29;100.00;101886.06;5029985;28;20784;-58
2022/03/23 04:02:19;;;;;;;25.73;18.27;;;;;;;1.30;100.00;101888.69;5029303;28;21004;-58
2022/03/23 04:04:44;;;;;;;23.02;16.48;;;;;;;1.24;100.00;101900.69;5028513;28;20024;-58
2022/03/23 04:07:09;;;;;;;24.15;17.02;;;;;;;1.18;100.00;101901.50;5028456;28;20039;-58
2022/03/23 04:09:35;;;;;;;27.40;19.30;;;;;;;1.19;100.00;101904.94;5028639;28;20911;-58
2022/03/23 04:12:00;;;;;;;27.48;17.80;;;;;;;1.16;100.00;101894.53;5028398;28;20269;-58
2022/03/23 04:14:25;;;;;;;23.20;17.42;;;;;;;1.18;100.00;101904.09;5028532;28;20812;-58
2022/03/23 04:16:51;;;;;;;30.88;18.85;;;;;;;1.18;100.00;101908.38;5030089;28;20025;-59
2022/03/23 04:19:16;;;;;;;31.30;18.83;;;;;;;1.12;100.00;101891.03;5028270;28;20131;-58
2022/03/23 04:21:41;;;;;;;24.02;17.65;;;;;;;1.15;100.00;101896.25;5028118;28;20052;-58
2022/03/23 04:24:07;;;;;;;25.98;18.20;;;;;;;1.17;100.00;101906.63;5028013;28;20031;-58
2022/03/23 04:26:32;;;;;;;26.30;17.90;;;;;;;1.14;100.00;101904.00;5027678;28;20071;-59
2022/03/23 04:28:58;;;;;;;26.42;18.95;;;;;;;1.07;100.00;101904.78;5027930;28;20035;-58
2022/03/23 04:31:23;;;;;;;26.48;18.52;;;;;;;0.99;100.00;101912.44;5029607;28;20020;-58
2022/03/23 04:33:48;;;;;;;29.52;17.45;;;;;;;0.77;100.00;101874.22;5028109;28;20858;-58
2022/03/23 04:36:14;;;;;;;24.75;17.98;;;;;;;0.90;100.00;101914.91;5029348;28;20039;-58
2022/03/23 04:38:39;;;;;;;27.77;18.85;;;;;;;0.84;100.00;101907.09;5029176;28;20172;-58
2022/03/23 04:41:05;;;;;;;28.98;19.10;;;;;;;0.81;100.00;101907.03;5029826;28;20098;-58
2022/03/23 04:43:32;;;;;;;24.65;18.33;;;;;;;0.88;100.00;101920.06;5029186;28;20899;-58
2022/03/23 04:45:58;;;;;;;28.58;19.85;;;;;;;0.84;100.00;101913.13;5028329;28;20031;-58
2022/03/23 04:48:23;;;;;;;26.40;17.80;;;;;;;0.89;100.00;101915.75;5028875;28;20028;-58
2022/03/23 04:50:49;;;;;;;29.88;19.30;;;;;;;0.89;100.00;101911.47;5028414;28;20904;-58
2022/03/23 04:53:15;;;;;;;26.85;20.42;;;;;;;0.76;100.00;101888.00;5028620;28;20848;-58
2022/03/23 04:55:41;;;;;;;28.30;18.83;;;;;;;0.89;100.00;101914.03;5029176;28;20037;-59
2022/03/23 04:58:06;;;;;;;28.48;19.08;;;;;;;0.89;100.00;101914.03;5028880;28;20136;-58
2022/03/23 05:00:33;;;;;;;27.00;17.88;;;;;;;0.86;100.00;101914.00;5028228;28;20036;-58
2022/03/23 05:02:58;;;;;;;24.02;17.45;;;;;;;0.79;100.00;101907.00;5029323;28;20020;-58
2022/03/23 05:05:24;;;;;;;26.60;18.60;;;;;;;0.82;100.00;101917.38;5029231;28;20908;-59
2022/03/23 05:07:49;;;;;;;28.50;19.73;;;;;;;0.82;100.00;101912.22;5028496;28;20036;-58
2022/03/23 05:10:15;;;;;;;25.85;18.75;;;;;;;0.79;100.00;101925.13;5027384;28;20036;-58
2022/03/23 05:12:42;;;;;;;25.98;18.13;;;;;;;0.79;100.00;101925.13;5028146;28;20139;-58
2022/03/23 05:15:08;;;;;;;30.70;20.13;;;;;;;0.54;100.00;101865.28;5027378;28;20087;-59
2022/03/23 05:17:35;;;;;;;27.88;21.02;;;;;;;0.94;100.00;101929.66;5026079;28;20981;-58
2022/03/23 05:20:01;;;;;;;29.35;19.17;;;;;;;0.98;100.00;101921.91;5028865;28;20024;-58
2022/03/23 05:22:27;;;;;;;29.50;20.13;;;;;;;0.96;100.00;101915.88;5029032;28;20039;-58
2022/03/23 05:24:52;;;;;;;28.65;20.35;;;;;;;0.97;100.00;101917.63;5027993;28;20084;-59
2022/03/23 05:27:17;;;;;;;31.25;21.00;;;;;;;0.99;100.00;101928.84;5027057;28;20097;-59
2022/03/23 05:29:43;;;;;;;31.70;19.63;;;;;;;0.98;100.00;101919.34;5027263;28;20090;-59
2022/03/23 05:32:16;;;;;;;32.55;18.15;;;;;;;0.96;100.00;101928.81;5028223;28;20035;-58
2022/03/23 05:34:44;;;;;;;33.85;19.38;;;;;;;0.89;100.00;101920.94;5026531;28;20135;-58
2022/03/23 05:37:11;;;;;;;33.08;20.02;;;;;;;0.91;100.00;101924.44;5027387;28;20040;-58
2022/03/23 05:39:36;;;;;;;26.00;19.90;;;;;;;0.94;100.00;101927.06;5028413;28;20084;-59
2022/03/23 05:42:03;;;;;;;30.55;20.98;;;;;;;0.92;100.00;101914.09;5027430;28;20840;-58
2022/03/23 05:44:28;;;;;;;29.90;18.90;;;;;;;1.04;100.00;101931.50;5026670;28;20479;-59
2022/03/23 05:46:54;;;;;;;31.77;21.42;;;;;;;1.09;100.00;101935.00;5027392;28;20036;-58
2022/03/23 05:49:19;;;;;;;31.55;20.95;;;;;;;1.16;100.00;101935.94;5026802;28;20031;-58
2022/03/23 05:51:45;;;;;;;32.67;20.33;;;;;;;1.18;100.00;101934.28;5028051;28;20800;-58
2022/03/23 05:54:10;;;;;;;31.45;19.73;;;;;;;1.11;100.00;101935.03;5028627;28;20038;-58
2022/03/23 05:56:35;;;;;;;24.38;17.90;;;;;;;1.03;100.00;101925.44;5027411;28;20068;-58
2022/03/23 05:59:01;;;;;;;27.77;20.48;;;;;;;1.08;100.00;101942.75;5028352;28;20899;-58
2022/03/23 06:01:26;;;;;;;27.13;19.38;;;;;;;1.08;100.00;101933.28;5026850;28;20140;-58
2022/03/23 06:03:52;;;;;;;28.65;20.77;;;;;;;1.12;100.00;101929.88;5027969;28;20128;-58
2022/03/23 06:06:17;;;;;;;28.73;19.88;;;;;;;1.16;100.00;101923.00;5027268;28;20143;-58
2022/03/23 06:08:43;;;;;;;30.75;17.83;;;;;;;1.24;100.00;101924.00;5026070;28;20031;-58
2022/03/23 06:11:08;;;;;;;31.08;20.08;;;;;;;1.36;100.00;101939.66;5026491;28;20038;-58
2022/03/23 06:13:33;;;;;;;30.33;18.83;;;;;;;1.39;100.00;101944.88;5029171;28;20032;-59
2022/03/23 06:15:59;;;;;;;29.73;19.77;;;;;;;1.33;100.00;101921.50;5029827;28;20630;-59
2022/03/23 06:18:24;;;;;;;26.23;19.40;;;;;;;1.50;100.00;101945.88;5028169;28;20060;-58
2022/03/23 06:20:50;;;;;;;36.65;18.90;;;;;;;1.57;100.00;101949.41;5026614;28;20024;-60
2022/03/23 06:23:15;;;;;;;31.23;20.05;;;;;;;1.59;100.00;101942.53;5026457;28;20906;-59
2022/03/23 06:25:40;;;;;;;25.38;18.77;;;;;;;1.66;100.00;101940.00;5028239;28;20035;-59
2022/03/23 06:28:06;;;;;;;29.27;20.70;;;;;;;1.67;100.00;101926.22;5026337;28;20036;-59
2022/03/23 06:30:31;;;;;;;32.17;20.05;;;;;;;1.90;100.00;101950.63;5026214;28;20020;-59
2022/03/23 06:32:57;;;;;;;33.72;20.15;;;;;;;2.05;100.00;101958.56;5026006;28;20034;-59
2022/03/23 06:35:23;;;;;;;32.33;19.65;;;;;;;2.15;100.00;101953.47;5025004;28;20052;-58
2022/03/23 06:37:49;;;;;;;28.20;18.33;;;;;;;2.25;100.00;101957.88;5024221;28;20036;-59
2022/03/23 06:40:14;;;;;;;29.48;18.95;;;;;;;2.32;100.00;101962.25;5024952;28;20029;-59
2022/03/23 06:42:40;;;;;;;27.50;19.38;;;;;;;2.43;100.00;101952.84;5025560;28;20020;-59
2022/03/23 06:45:06;;;;;;;27.95;20.42;;;;;;;2.50;100.00;101949.47;5026864;28;20028;-58
2022/03/23 06:47:31;;;;;;;32.75;21.13;;;;;;;2.67;100.00;101960.78;5024392;28;20029;-59
2022/03/23 06:49:57;;;;;;;31.17;22.13;;;;;;;2.80;100.00;101966.97;5024791;28;20059;-58
2022/03/23 06:52:22;;;;;;;38.35;22.58;;;;;;;2.91;100.00;101963.56;5025346;28;20033;-59
2022/03/23 06:54:49;;;;;;;31.58;20.90;;;;;;;2.76;100.00;101916.75;5025055;28;20060;-59
2022/03/23 06:57:14;;;;;;;31.13;20.95;;;;;;;3.10;100.00;101946.38;5024994;28;20028;-59
2022/03/23 06:59:40;;;;;;;29.33;18.27;;;;;;;2.87;100.00;101901.25;5025397;28;20029;-58
2022/03/23 07:02:06;;;;;;;29.48;18.90;;;;;;;3.41;100.00;101966.41;5024841;28;20025;-59
2022/03/23 07:04:31;;;;;;;29.55;18.27;;;;;;;3.59;100.00;101976.91;5025976;28;20039;-58
2022/03/23 07:06:56;;;;;;;27.33;18.63;;;;;;;3.73;100.00;101976.06;5024942;28;20056;-58
2022/03/23 07:09:39;;;;;;;26.83;18.10;;;;;;;3.89;100.00;101983.91;5025541;28;20806;-59
2022/03/23 07:12:10;;;;;;;25.75;16.65;;;;;;;4.07;100.00;101985.69;5027333;28;20037;-58
2022/03/23 07:14:38;;;;;;;23.80;16.17;;;;;;;4.23;100.00;101978.78;5024245;28;20029;-59
2022/03/23 07:17:04;;;;;;;19.60;14.85;;;;;;;4.38;100.00;101986.59;5025660;28;20032;-59
2022/03/23 07:19:30;;;;;;;23.15;14.60;;;;;;;4.47;100.00;101973.59;5024724;28;20800;-59
2022/03/23 07:21:56;;;;;;;39.28;15.80;;;;;;;4.68;100.00;101986.59;5027284;28;20135;-59
2022/03/23 07:24:22;;;;;;;18.45;14.02;;;;;;;4.87;100.00;101987.44;5025554;28;20043;-59
2022/03/23 07:26:47;;;;;;;17.05;13.32;;;;;;;5.01;100.00;101991.78;5025503;28;20111;-59
2022/03/23 07:29:13;;;;;;;26.05;15.80;;;;;;;5.18;100.00;101983.91;5025729;28;20869;-59
2022/03/23 07:31:39;;;;;;;18.15;14.75;;;;;;;5.32;100.00;101982.16;5025631;28;20066;-59
2022/03/23 07:34:04;;;;;;;19.60;13.73;;;;;;;5.56;100.00;101987.28;5027107;28;20028;-59
2022/03/23 07:36:30;;;;;;;18.33;13.05;;;;;;;5.61;100.00;101969.00;5025353;28;20903;-59
2022/03/23 07:38:56;;;;;;;20.13;13.57;;;;;;;6.03;100.00;102001.84;5025602;28;20052;-59
2022/03/23 07:41:22;;;;;;;21.30;14.55;;;;;;;6.33;100.00;101987.72;5026099;28;20548;-59
2022/03/23 07:43:49;;;;;;;26.30;12.50;;;;;;;6.57;100.00;101987.53;5025353;28;20909;-59
2022/03/23 07:46:14;;;;;;;19.80;11.43;;;;;;;6.83;100.00;101984.69;5016414;28;20037;-58
2022/03/23 07:48:40;;;;;;;18.90;13.20;;;;;;;7.19;100.00;101993.06;5007413;28;20821;-58
2022/03/23 07:51:06;;;;;;;25.50;14.00;;;;;;;7.49;100.00;101998.81;5006463;28;20029;-59
2022/03/23 07:53:31;;;;;;;20.80;12.65;;;;;;;7.78;100.00;101995.81;5005455;28;20033;-59
2022/03/23 07:55:57;;;;;;;19.73;12.32;;;;;;;7.88;100.00;101990.44;5005669;28;20029;-59
2022/03/23 07:58:23;;;;;;;25.67;13.63;;;;;;;8.07;100.00;102005.03;5005624;28;20024;-59
2022/03/23 08:00:49;;;;;;;24.70;14.73;;;;;;;8.13;100.00;101997.09;5005986;28;20025;-59
2022/03/23 08:03:14;;;;;;;21.42;15.38;;;;;;;8.30;100.00;102007.34;5004982;28;20988;-59
2022/03/23 08:05:42;;;;;;;24.73;15.15;;;;;;;8.37;100.00;102008.13;5005470;28;20820;-58
2022/03/23 08:08:09;;;;;;;32.45;15.65;;;;;;;8.54;100.00;102006.97;5005574;28;20136;-59
2022/03/23 08:10:35;;;;;;;32.25;15.60;;;;;;;8.70;100.00;102012.81;5005598;28;20141;-59
2022/03/23 08:13:01;;;;;;;26.60;16.08;;;;;;;8.92;100.00;102011.56;5011875;28;20021;-58
2022/03/23 08:15:29;;;;;;;31.77;17.73;;;;;;;9.23;100.00;102009.25;5028419;28;20059;-59
2022/03/23 08:17:56;;;;;;;26.73;15.95;;;;;;;9.48;100.00;102009.66;5028256;28;21282;-59
2022/03/23 08:20:35;;;;;;;28.25;17.05;;;;;;;9.45;100.00;101967.72;5028596;28;20044;-59
2022/03/23 08:23:05;;;;;;;32.30;16.27;;;;;;;9.87;100.00;102007.97;5023428;28;20881;-58
2022/03/23 08:25:31;;;;;;;49.33;17.33;;;;;;;9.74;100.00;101949.59;5029730;28;20031;-59
2022/03/23 08:27:57;;;;;;;28.27;16.02;;;;;;;10.31;99.29;102010.50;5028866;28;20032;-59
2022/03/23 08:30:24;;;;;;;33.50;16.98;;;;;;;10.47;99.13;102005.75;5028560;28;21025;-59
2022/03/23 08:32:49;;;;;;;34.40;16.75;;;;;;;10.60;100.00;101997.53;5028544;28;20041;-59
2022/03/23 08:35:15;;;;;;;29.08;15.90;;;;;;;10.68;99.11;101999.94;5027300;28;21047;-59
2022/03/23 08:37:40;;;;;;;28.27;16.08;;;;;;;10.82;100.00;102003.09;5029846;28;20102;-59
2022/03/23 08:40:06;;;;;;;28.10;16.50;;;;;;;10.64;98.98;101961.53;5029347;28;20082;-59
2022/03/23 08:42:31;;;;;;;32.78;17.15;;;;;;;11.00;98.23;101993.88;5029541;28;20139;-59
2022/03/23 08:44:57;;;;;;;27.02;16.45;;;;;;;11.21;91.13;102006.47;5030051;28;20067;-59
2022/03/23 08:47:23;;;;;;;19.58;13.88;;;;;;;11.35;87.31;102008.72;5028992;28;20067;-59
2022/03/23 08:49:48;;;;;;;30.98;15.68;;;;;;;11.45;86.76;102005.81;5029082;28;20040;-59
2022/03/23 08:52:14;;;;;;;23.40;14.35;;;;;;;11.55;87.78;102006.41;5028365;28;20028;-59
2022/03/23 08:54:39;;;;;;;22.40;14.40;;;;;;;11.65;86.81;102002.59;5029691;28;20076;-59
2022/03/23 08:57:05;;;;;;;19.33;13.40;;;;;;;11.85;83.12;102005.56;5029867;28;20043;-59
2022/03/23 08:59:30;;;;;;;18.48;13.48;;;;;;;12.01;81.01;102006.81;5028683;28;20086;-59
2022/03/23 09:01:56;;;;;;;28.17;14.15;;;;;;;12.08;82.53;102002.22;5028511;28;20890;-59
2022/03/23 09:04:22;;;;;;;21.30;13.90;;;;;;;12.05;77.91;101978.59;5028232;28;20087;-58
2022/03/23 09:06:47;;;;;;;23.85;14.25;;;;;;;12.28;76.11;101999.81;5028871;28;20918;-59
2022/03/23 09:09:13;;;;;;;23.40;14.50;;;;;;;12.43;75.44;102009.91;5028521;28;20149;-59
2022/03/23 09:11:38;;;;;;;27.70;17.20;;;;;;;12.52;73.93;101992.91;5028115;28;20990;-59
2022/03/23 09:14:04;;;;;;;29.33;16.25;;;;;;;12.72;73.26;101999.25;5028568;28;20028;-59
2022/03/23 09:16:29;;;;;;;38.67;15.80;;;;;;;12.79;73.30;102002.53;5027998;28;20036;-59
2022/03/23 09:18:55;;;;;;;25.35;15.15;;;;;;;12.95;73.70;102013.44;5028144;28;20888;-59
2022/03/23 09:21:21;;;;;;;34.05;16.08;;;;;;;13.07;72.66;102013.91;5029673;28;20025;-59
2022/03/23 09:23:46;;;;;;;37.83;18.20;;;;;;;13.07;71.54;101982.22;5026887;28;20043;-59
2022/03/23 09:26:12;;;;;;;34.28;17.40;;;;;;;13.42;71.76;102012.66;5029226;28;20180;-59
2022/03/23 09:28:38;;;;;;;27.38;16.40;;;;;;;13.29;69.65;101966.50;5027990;28;20028;-59
2022/03/23 09:31:04;;;;;;;25.75;16.10;;;;;;;13.58;69.13;102005.06;5029069;28;20032;-58
2022/03/23 09:33:30;;;;;;;24.48;14.93;;;;;;;13.60;69.50;102004.09;5029436;28;20021;-58
2022/03/23 09:35:56;;;;;;;31.42;15.07;;;;;;;13.77;68.02;102008.75;5030355;28;20935;-59
2022/03/23 09:38:21;;;;;;;22.88;14.85;;;;;;;13.83;65.61;102012.00;5027529;28;20025;-58
2022/03/23 09:40:50;;;;;;;36.97;15.32;;;;;;;13.82;65.32;101993.59;5026411;28;20911;-59
2022/03/23 09:43:17;;;;;;;21.30;14.82;;;;;;;13.85;66.10;102001.41;5028007;28;20416;-59
2022/03/23 09:48:11;;;;;;;26.48;14.60;;;;;;;14.11;64.29;101985.38;5027415;28;20059;-59
2022/03/23 09:50:41;;;;;;;23.25;13.77;;;;;;;14.37;63.38;102005.53;5026794;28;20063;-59
2022/03/23 09:53:07;;;;;;;41.58;15.23;;;;;;;14.42;63.17;101995.63;5028466;28;20024;-59
2022/03/23 09:55:32;;;;;;;26.50;14.65;;;;;;;14.46;62.40;102001.66;5026907;28;20048;-59
2022/03/23 09:58:00;;;;;;;21.00;13.68;;;;;;;14.55;61.40;101996.84;5028157;28;20128;-59
2022/03/23 10:00:29;;;;;;;21.27;12.57;;;;;;;14.71;60.31;102007.66;5026668;28;20961;-59
2022/03/23 10:02:57;;;;;;;27.13;15.48;;;;;;;14.84;60.21;102004.44;5027295;28;20025;-59
2022/03/23 10:05:38;;;;;;;23.58;14.05;;;;;;;14.96;57.78;102000.41;5026369;28;20040;-59
2022/03/23 10:08:38;;;;;;;21.08;14.55;;;;;;;15.10;57.51;102010.41;5026623;28;20164;-59
2022/03/23 10:11:41;;;;;;;29.05;15.00;;;;;;;15.14;56.57;102007.56;5021464;28;20048;-59
2022/03/23 10:14:18;;;;;;;31.00;14.52;;;;;;;15.24;56.68;102011.53;5025418;28;20033;-59
2022/03/23 10:16:49;;;;;;;28.52;13.93;;;;;;;15.31;55.82;102009.47;5026781;28;20035;-59
2022/03/23 10:19:15;;;;;;;20.33;14.88;;;;;;;15.41;55.72;102004.66;5026596;28;20043;-59
2022/03/23 10:21:40;;;;;;;25.58;13.32;;;;;;;15.48;54.76;102006.09;5026723;28;20025;-58
2022/03/23 10:24:06;;;;;;;22.10;13.77;;;;;;;15.56;55.36;101998.69;5026823;28;20025;-59
2022/03/23 10:26:36;;;;;;;19.77;14.60;;;;;;;15.69;53.31;102005.13;5025329;28;20893;-59
2022/03/23 10:29:02;;;;;;;17.92;13.68;;;;;;;15.68;54.50;101987.53;5026807;28;20029;-59
2022/03/23 10:31:28;;;;;;;21.05;14.18;;;;;;;15.91;53.76;102010.31;5026495;28;20087;-59
2022/03/23 10:34:07;;;;;;;27.52;14.52;;;;;;;15.95;52.91;102002.16;5026252;28;20028;-59
2022/03/23 10:36:34;;;;;;;20.52;13.65;;;;;;;16.19;56.97;102006.28;5026188;28;20024;-59
2022/03/23 10:39:05;;;;;;;24.75;13.73;;;;;;;16.25;52.72;101987.44;5027742;28;20181;-59
2022/03/23 10:41:31;;;;;;;22.27;14.55;;;;;;;16.51;52.18;102002.09;5027997;28;20032;-59
2022/03/23 10:43:56;;;;;;;26.55;13.45;;;;;;;16.62;50.22;102001.59;5027604;28;20074;-58
2022/03/23 10:46:22;;;;;;;17.70;12.73;;;;;;;16.70;50.57;101999.41;5025904;28;20021;-59
2022/03/23 10:48:51;;;;;;;19.25;13.48;;;;;;;16.84;53.65;101999.56;5026918;28;20064;-59
2022/03/23 10:51:31;;;;;;;23.25;13.57;;;;;;;16.91;47.59;101995.69;5027134;28;20033;-59
2022/03/23 10:53:57;;;;;;;23.05;13.75;;;;;;;16.89;46.41;101992.25;5027453;28;20028;-59
2022/03/23 10:56:34;;;;;;;21.42;13.77;;;;;;;16.90;46.29;101988.63;5025330;28;20143;-58
2022/03/23 10:59:22;;;;;;;31.23;13.63;;;;;;;16.87;45.61;101972.88;5025084;28;20035;-59
2022/03/23 11:02:03;;;;;;;22.20;13.65;;;;;;;17.09;46.01;101992.09;5024952;28;20021;-58
2022/03/23 11:04:30;;;;;;;23.60;13.75;;;;;;;17.14;47.80;101990.03;5025639;28;20044;-58
2022/03/23 11:06:58;;;;;;;22.20;15.05;;;;;;;17.21;49.15;101983.47;5025748;28;20914;-58
2022/03/23 11:18:12;;;;;;;24.48;13.18;;;;;;;17.15;45.41;101925.34;5025599;28;20047;-58
2022/03/23 11:20:47;;;;;;;19.00;14.48;;;;;;;17.57;43.99;101995.78;5025056;28;20025;-58
2022/03/23 11:23:24;;;;;;;23.15;14.43;;;;;;;17.65;42.15;101994.44;5025228;28;20024;-58
2022/03/23 11:26:00;;;;;;;22.08;13.48;;;;;;;17.73;44.51;101989.56;5023413;28;20029;-58
2022/03/23 11:28:28;;;;;;;19.60;14.48;;;;;;;17.83;44.85;101971.31;5024598;28;20060;-59
2022/03/23 11:30:54;;;;;;;26.55;15.35;;;;;;;18.02;42.40;101985.28;5039917;28;20032;-59